createdAt,value
2023-03-06T00:00:31.963Z,10.30
2023-03-06T00:02:58.406Z,11.10
2023-03-06T00:05:24.832Z,12.02
2023-03-06T00:07:51.283Z,9.82
2023-03-06T00:10:23.088Z,12.00
2023-03-06T00:12:52.538Z,11.90
2023-03-06T00:15:19.378Z,7.65
2023-03-06T00:17:45.742Z,10.60
2023-03-06T00:20:13.284Z,10.57
2023-03-06T00:22:40.559Z,8.88
2023-03-06T00:25:08.708Z,8.00
2023-03-06T00:27:35.235Z,9.32
2023-03-06T00:30:01.941Z,10.10
2023-03-06T00:32:28.921Z,11.90
2023-03-06T00:34:56.199Z,9.35
2023-03-06T00:37:24.315Z,12.40
2023-03-06T00:39:50.936Z,16.33
2023-03-06T00:42:18.529Z,19.20
2023-03-06T00:44:45.528Z,16.63
2023-03-06T00:47:12.844Z,18.30
2023-03-06T00:49:39.505Z,20.02
2023-03-06T00:52:05.931Z,19.58
2023-03-06T00:54:32.314Z,21.25
2023-03-06T00:56:58.676Z,21.15
2023-03-06T00:59:25.050Z,21.50
2023-03-06T01:01:51.430Z,20.33
2023-03-06T01:04:17.814Z,18.60
2023-03-06T01:06:44.170Z,17.15
2023-03-06T01:09:10.766Z,18.77
2023-03-06T01:11:38.269Z,18.17
2023-03-06T01:14:05.258Z,19.25
2023-03-06T01:16:31.967Z,19.20
2023-03-06T01:18:58.966Z,22.67
2023-03-06T01:21:25.651Z,21.88
2023-03-06T01:23:52.180Z,17.02
2023-03-06T01:26:18.850Z,20.15
2023-03-06T01:28:45.373Z,19.10
2023-03-06T01:31:11.967Z,20.27
2023-03-06T01:33:38.393Z,22.85
2023-03-06T01:36:07.691Z,21.67
2023-03-06T01:38:35.896Z,22.73
2023-03-06T01:41:03.488Z,20.02
2023-03-06T01:43:38.378Z,24.98
2023-03-06T01:46:41.852Z,25.05
2023-03-06T01:49:22.167Z,21.17
2023-03-06T01:52:00.636Z,23.20
2023-03-06T01:54:29.498Z,25.00
2023-03-06T01:57:33.659Z,24.35
2023-03-06T02:00:06.951Z,24.17
2023-03-06T02:02:33.544Z,25.52
2023-03-06T02:05:02.577Z,25.35
2023-03-06T02:07:29.741Z,25.80
2023-03-06T02:09:56.698Z,24.05
2023-03-06T02:12:23.526Z,25.52
2023-03-06T02:14:50.164Z,23.95
2023-03-06T02:17:19.034Z,23.88
2023-03-06T02:20:03.717Z,27.33
2023-03-06T02:22:39.949Z,25.90
2023-03-06T02:25:40.945Z,23.55
2023-03-06T02:28:11.069Z,25.40
2023-03-06T02:30:38.491Z,24.83
2023-03-06T02:33:05.801Z,24.08
2023-03-06T02:35:34.786Z,27.88
2023-03-06T02:38:06.508Z,27.02
2023-03-06T02:40:32.849Z,25.88
2023-03-06T02:42:59.565Z,26.13
2023-03-06T02:45:40.570Z,25.50
2023-03-06T02:48:07.561Z,26.27
2023-03-06T02:50:33.950Z,26.25
2023-03-06T02:53:00.344Z,23.92
2023-03-06T02:55:26.895Z,32.53
2023-03-06T02:57:53.338Z,28.17
2023-03-06T03:00:19.942Z,27.63
2023-03-06T03:02:46.568Z,25.85
2023-03-06T03:05:12.922Z,28.52
2023-03-06T03:07:39.446Z,27.45
2023-03-06T03:10:06.418Z,23.27
2023-03-06T03:12:33.435Z,27.15
2023-03-06T03:14:59.798Z,28.45
2023-03-06T03:17:26.182Z,29.27
2023-03-06T03:19:52.590Z,24.73
2023-03-06T03:22:19.566Z,27.75
2023-03-06T03:24:46.476Z,27.52
2023-03-06T03:27:13.738Z,29.05
2023-03-06T03:29:40.788Z,27.45
2023-03-06T03:32:07.515Z,27.63
2023-03-06T03:34:33.975Z,26.65
2023-03-06T03:37:00.408Z,31.48
2023-03-06T03:39:26.792Z,28.38
2023-03-06T03:41:53.159Z,27.55
2023-03-06T03:44:19.636Z,27.70
2023-03-06T03:46:46.090Z,26.13
2023-03-06T03:49:12.682Z,27.85
2023-03-06T03:51:39.288Z,24.63
2023-03-06T03:54:06.731Z,27.00
2023-03-06T03:56:34.155Z,23.60
2023-03-06T03:59:00.874Z,28.55
2023-03-06T04:01:27.481Z,27.77
2023-03-06T04:03:54.326Z,26.63
2023-03-06T04:06:20.741Z,25.65
2023-03-06T04:08:47.125Z,20.75
2023-03-06T04:11:13.473Z,24.88
2023-03-06T04:13:39.880Z,26.88
2023-03-06T04:16:06.737Z,24.83
2023-03-06T04:18:33.390Z,24.95
2023-03-06T04:20:59.826Z,24.48
2023-03-06T04:23:27.772Z,25.42
2023-03-06T04:25:54.294Z,25.13
2023-03-06T04:28:21.355Z,26.52
2023-03-06T04:30:47.764Z,24.13
2023-03-06T04:33:14.223Z,29.65
2023-03-06T04:35:40.835Z,24.23
2023-03-06T04:38:07.187Z,26.65
2023-03-06T04:40:36.116Z,26.33
2023-03-06T04:43:03.607Z,24.35
2023-03-06T04:45:31.065Z,23.98
2023-03-06T04:47:58.475Z,29.67
2023-03-06T04:50:25.741Z,24.67
2023-03-06T04:52:52.289Z,30.10
2023-03-06T04:55:19.833Z,28.65
2023-03-06T04:57:47.408Z,27.20
2023-03-06T05:00:20.050Z,29.25
2023-03-06T05:02:49.103Z,31.42
2023-03-06T05:05:17.913Z,31.15
2023-03-06T05:07:44.517Z,34.67
2023-03-06T05:10:19.041Z,34.55
2023-03-06T05:12:45.665Z,28.85
2023-03-06T05:15:12.649Z,30.30
2023-03-06T05:17:42.380Z,29.48
2023-03-06T05:20:11.065Z,33.17
2023-03-06T05:22:37.587Z,31.65
2023-03-06T05:25:04.911Z,31.27
2023-03-06T05:27:31.319Z,33.08
2023-03-06T05:29:57.969Z,34.63
2023-03-06T05:32:24.447Z,34.95
2023-03-06T05:34:51.060Z,33.72
2023-03-06T05:37:17.433Z,33.60
2023-03-06T05:39:44.139Z,36.92
2023-03-06T05:42:10.549Z,35.55
2023-03-06T05:44:37.271Z,35.13
2023-03-06T05:47:03.825Z,30.95
2023-03-06T05:49:35.100Z,35.15
2023-03-06T05:52:03.966Z,34.88
2023-03-06T05:54:32.199Z,35.53
2023-03-06T05:56:58.938Z,30.60
2023-03-06T05:59:28.323Z,32.25
2023-03-06T06:01:56.063Z,35.33
2023-03-06T06:04:23.991Z,38.08
2023-03-06T06:06:55.730Z,37.60
2023-03-06T06:09:22.464Z,34.10
2023-03-06T06:11:57.671Z,32.78
2023-03-06T06:16:51.597Z,33.05
2023-03-06T06:19:20.913Z,32.58
2023-03-06T06:21:49.243Z,35.97
2023-03-06T06:24:17.597Z,33.00
2023-03-06T06:26:44.893Z,36.45
2023-03-06T06:29:12.299Z,36.85
2023-03-06T06:31:39.439Z,34.08
2023-03-06T06:34:06.703Z,33.78
2023-03-06T06:36:33.379Z,36.88
2023-03-06T06:38:59.756Z,37.13
2023-03-06T06:41:42.720Z,37.90
2023-03-06T06:44:15.390Z,34.78
2023-03-06T06:49:32.818Z,33.70
2023-03-06T06:51:59.645Z,36.40
2023-03-06T06:54:26.432Z,32.95
2023-03-06T06:56:53.009Z,35.92
2023-03-06T06:59:19.556Z,31.27
2023-03-06T07:01:46.058Z,34.47
2023-03-06T07:04:13.710Z,35.92
2023-03-06T07:06:40.955Z,34.58
2023-03-06T07:09:07.387Z,34.15
2023-03-06T07:11:33.973Z,34.60
2023-03-06T07:14:01.757Z,35.53
2023-03-06T07:16:28.213Z,34.55
2023-03-06T07:18:54.893Z,37.38
2023-03-06T07:21:21.328Z,34.30
2023-03-06T07:23:47.688Z,36.00
2023-03-06T07:26:14.074Z,34.85
2023-03-06T07:28:51.968Z,31.58
2023-03-06T07:31:22.052Z,32.40
2023-03-06T07:33:49.865Z,34.72
2023-03-06T07:36:17.098Z,33.58
2023-03-06T07:38:43.618Z,30.67
2023-03-06T07:41:13.452Z,31.63
2023-03-06T07:43:44.313Z,29.40
2023-03-06T07:46:12.690Z,30.25
2023-03-06T07:48:39.472Z,27.63
2023-03-06T07:51:17.397Z,27.25
2023-03-06T07:53:44.345Z,29.30
2023-03-06T07:56:11.860Z,26.83
2023-03-06T07:58:40.926Z,30.13
2023-03-06T08:01:12.763Z,29.95
2023-03-06T08:03:39.401Z,33.00
2023-03-06T08:06:11.706Z,34.45
2023-03-06T08:08:40.279Z,35.20
2023-03-06T08:11:08.902Z,31.13
2023-03-06T08:13:35.839Z,31.05
2023-03-06T08:16:02.985Z,30.45
2023-03-06T08:18:29.661Z,30.40
2023-03-06T08:21:24.593Z,31.13
2023-03-06T08:23:51.384Z,29.38
2023-03-06T08:26:23.518Z,36.47
2023-03-06T08:28:52.315Z,29.63
2023-03-06T08:31:37.214Z,25.63
2023-03-06T08:34:09.905Z,35.83
2023-03-06T08:36:36.890Z,45.28
2023-03-06T08:39:04.497Z,37.53
2023-03-06T08:41:30.964Z,39.83
2023-03-06T08:43:57.402Z,44.03
2023-03-06T08:46:25.813Z,43.30
2023-03-06T08:48:52.499Z,40.63
2023-03-06T08:51:19.917Z,38.45
2023-03-06T08:53:47.011Z,38.85
2023-03-06T08:56:24.850Z,46.90
2023-03-06T08:58:52.799Z,43.88
2023-03-06T09:01:25.462Z,43.55
2023-03-06T09:03:56.439Z,45.47
2023-03-06T09:06:23.599Z,40.38
2023-03-06T09:08:54.044Z,38.85
2023-03-06T09:11:21.710Z,39.72
2023-03-06T09:13:48.151Z,39.00
2023-03-06T09:16:14.547Z,39.63
2023-03-06T09:18:40.999Z,41.78
2023-03-06T09:21:09.313Z,39.55
2023-03-06T09:23:37.094Z,36.90
2023-03-06T09:26:03.566Z,40.10
2023-03-06T09:28:29.981Z,34.85
2023-03-06T09:30:56.436Z,36.60
2023-03-06T09:33:23.494Z,39.40
2023-03-06T09:35:53.256Z,36.40
2023-03-06T09:38:23.624Z,44.95
2023-03-06T09:41:01.935Z,34.33
2023-03-06T09:43:32.933Z,34.45
2023-03-06T09:45:59.490Z,34.53
2023-03-06T09:48:40.540Z,36.38
2023-03-06T09:51:17.024Z,36.80
2023-03-06T09:53:55.423Z,37.55
2023-03-06T09:56:24.233Z,34.80
2023-03-06T09:58:55.862Z,33.33
2023-03-06T10:01:28.005Z,35.17
2023-03-06T10:04:02.868Z,31.92
2023-03-06T10:06:48.515Z,30.85
2023-03-06T10:09:20.293Z,30.60
2023-03-06T10:11:58.895Z,35.88
2023-03-06T10:14:43.996Z,32.15
2023-03-06T10:17:23.616Z,36.90
2023-03-06T10:19:50.732Z,30.17
2023-03-06T10:22:46.109Z,29.02
2023-03-06T10:25:36.676Z,28.45
2023-03-06T10:28:12.091Z,29.08
2023-03-06T10:30:52.712Z,29.65
2023-03-06T10:33:30.077Z,23.65
2023-03-06T10:35:56.844Z,27.35
2023-03-06T10:38:32.285Z,26.80
2023-03-06T10:41:10.750Z,28.98
2023-03-06T10:43:43.053Z,24.42
2023-03-06T10:46:12.055Z,27.90
2023-03-06T10:48:41.995Z,28.48
2023-03-06T10:51:19.073Z,26.83
2023-03-06T10:53:48.591Z,27.58
2023-03-06T10:56:27.546Z,29.98
2023-03-06T10:59:13.096Z,28.73
2023-03-06T11:04:25.543Z,24.08
2023-03-06T11:07:04.544Z,25.98
2023-03-06T11:09:33.107Z,26.23
2023-03-06T11:12:35.090Z,30.70
2023-03-06T11:15:07.854Z,27.30
2023-03-06T11:17:55.869Z,29.08
2023-03-06T11:20:51.394Z,29.55
2023-03-06T11:23:21.782Z,25.20
2023-03-06T11:26:20.592Z,29.15
2023-03-06T11:28:57.362Z,28.40
2023-03-06T11:32:05.946Z,26.35
2023-03-06T11:34:38.349Z,30.13
2023-03-06T11:37:29.653Z,28.20
2023-03-06T11:40:11.287Z,28.35
2023-03-06T11:42:39.940Z,30.67
2023-03-06T11:45:57.649Z,28.55
2023-03-06T11:48:39.076Z,28.52
2023-03-06T11:51:14.878Z,26.88
2023-03-06T11:53:41.785Z,27.05
2023-03-06T11:56:08.098Z,26.73
2023-03-06T11:58:51.964Z,26.38
2023-03-06T12:01:49.604Z,26.70
2023-03-06T12:04:38.126Z,26.75
2023-03-06T12:07:32.913Z,21.10
2023-03-06T12:10:34.396Z,24.05
2023-03-06T12:13:27.654Z,20.83
2023-03-06T12:16:24.687Z,22.60
2023-03-06T12:19:12.691Z,23.13
2023-03-06T12:21:57.934Z,23.88
2023-03-06T12:24:51.064Z,19.73
2023-03-06T12:27:48.691Z,22.35
2023-03-06T12:30:24.184Z,22.50
2023-03-06T12:33:08.933Z,19.65
2023-03-06T12:35:58.899Z,17.33
2023-03-06T12:38:55.803Z,19.65
2023-03-06T12:41:47.670Z,17.70
2023-03-06T12:44:32.206Z,19.40
2023-03-06T12:47:10.068Z,16.20
2023-03-06T12:49:41.507Z,21.45
2023-03-06T12:52:11.026Z,21.55
2023-03-06T12:54:40.757Z,23.40
2023-03-06T12:57:09.083Z,24.35
2023-03-06T12:59:38.515Z,25.77
2023-03-06T13:03:02.580Z,27.33
2023-03-06T13:05:38.393Z,22.15
2023-03-06T13:08:40.183Z,22.15
2023-03-06T13:11:23.046Z,21.05
2023-03-06T13:13:49.565Z,25.38
2023-03-06T13:16:15.968Z,26.10
2023-03-06T13:18:42.303Z,19.70
2023-03-06T13:21:46.367Z,20.95
2023-03-06T13:24:37.024Z,19.85
2023-03-06T13:27:07.879Z,19.00
2023-03-06T13:29:37.207Z,21.63
2023-03-06T13:32:03.562Z,19.88
2023-03-06T13:34:46.712Z,21.85
2023-03-06T13:37:28.069Z,18.67
2023-03-06T13:39:58.352Z,21.20
2023-03-06T13:42:36.374Z,20.23
2023-03-06T13:45:19.260Z,22.27
2023-03-06T13:48:15.505Z,22.20
2023-03-06T13:50:43.751Z,20.23
2023-03-06T13:53:37.699Z,19.42
2023-03-06T13:56:29.953Z,18.65
2023-03-06T13:59:20.465Z,17.63
2023-03-06T14:02:29.015Z,17.92
2023-03-06T14:04:58.591Z,21.55
2023-03-06T14:07:30.774Z,18.30
2023-03-06T14:10:25.648Z,20.15
2023-03-06T14:12:52.135Z,18.42
2023-03-06T14:15:46.437Z,21.13
2023-03-06T14:18:12.810Z,20.50
2023-03-06T14:20:39.189Z,19.63
2023-03-06T14:23:20.840Z,23.88
2023-03-06T14:25:53.830Z,20.15
2023-03-06T14:28:29.258Z,21.08
2023-03-06T14:30:57.533Z,20.88
2023-03-06T14:33:30.343Z,20.50
2023-03-06T14:36:00.648Z,15.88
2023-03-06T14:38:30.296Z,16.52
2023-03-06T14:40:58.007Z,18.98
2023-03-06T14:43:27.757Z,16.65
2023-03-06T14:46:06.433Z,17.30
2023-03-06T14:48:44.498Z,17.50
2023-03-06T14:51:20.944Z,16.95
2023-03-06T14:53:49.996Z,17.45
2023-03-06T14:56:22.323Z,17.90
2023-03-06T14:58:59.788Z,20.45
2023-03-06T15:01:40.118Z,18.63
2023-03-06T15:04:25.024Z,20.58
2023-03-06T15:06:52.321Z,24.17
2023-03-06T15:09:33.945Z,21.38
2023-03-06T15:12:02.138Z,25.08
2023-03-06T15:14:34.008Z,23.02
2023-03-06T15:17:18.754Z,24.13
2023-03-06T15:19:47.156Z,22.40
2023-03-06T15:22:40.239Z,23.95
2023-03-06T15:25:09.707Z,23.13
2023-03-06T15:27:36.141Z,25.15
2023-03-06T15:30:23.002Z,28.17
2023-03-06T15:32:49.594Z,22.50
2023-03-06T15:35:27.481Z,24.73
2023-03-06T15:37:54.468Z,25.10
2023-03-06T15:40:23.591Z,25.98
2023-03-06T15:42:50.611Z,28.20
2023-03-06T15:45:19.978Z,26.60
2023-03-06T15:47:48.061Z,24.63
2023-03-06T15:50:19.769Z,25.52
2023-03-06T15:52:46.995Z,24.50
2023-03-06T15:55:15.083Z,24.27
2023-03-06T15:57:48.140Z,24.33
2023-03-06T16:00:27.591Z,26.95
2023-03-06T16:02:56.289Z,24.88
2023-03-06T16:05:23.497Z,25.88
2023-03-06T16:07:50.260Z,24.23
2023-03-06T16:10:22.295Z,23.38
2023-03-06T16:12:53.955Z,26.05
2023-03-06T16:15:28.880Z,25.48
2023-03-06T16:17:56.455Z,26.10
2023-03-06T16:20:28.923Z,23.13
2023-03-06T16:22:56.418Z,20.92
2023-03-06T16:25:24.908Z,21.40
2023-03-06T16:27:59.779Z,23.15
2023-03-06T16:30:30.083Z,24.65
2023-03-06T16:32:57.275Z,20.90
2023-03-06T16:35:24.575Z,19.92
2023-03-06T16:37:51.481Z,18.70
2023-03-06T16:40:25.554Z,20.90
2023-03-06T16:42:55.031Z,19.42
2023-03-06T16:45:22.975Z,18.92
2023-03-06T16:47:49.436Z,18.45
2023-03-06T16:50:28.003Z,18.02
2023-03-06T16:52:55.697Z,23.05
2023-03-06T16:55:23.409Z,19.55
2023-03-06T16:57:49.944Z,20.70
2023-03-06T17:00:19.067Z,18.65
2023-03-06T17:02:48.372Z,27.23
2023-03-06T17:05:15.650Z,20.30
2023-03-06T17:07:42.092Z,19.38
2023-03-06T17:10:12.407Z,20.27
2023-03-06T17:12:39.205Z,20.92
2023-03-06T17:15:06.992Z,24.75
2023-03-06T17:17:33.661Z,24.02
2023-03-06T17:20:00.221Z,21.65
2023-03-06T17:22:27.305Z,20.80
2023-03-06T17:24:54.159Z,20.08
2023-03-06T17:27:22.347Z,22.02
2023-03-06T17:29:48.813Z,22.58
2023-03-06T17:32:15.264Z,25.15
2023-03-06T17:34:41.812Z,22.67
2023-03-06T17:37:08.239Z,23.38
2023-03-06T17:39:37.010Z,25.45
2023-03-06T17:42:04.608Z,25.02
2023-03-06T17:44:33.642Z,21.77
2023-03-06T17:47:00.580Z,24.92
2023-03-06T17:49:27.099Z,24.40
2023-03-06T17:51:54.955Z,23.10
2023-03-06T17:54:21.333Z,23.50
2023-03-06T17:56:47.797Z,30.00
2023-03-06T17:59:14.715Z,28.23
2023-03-06T18:01:41.199Z,23.75
2023-03-06T18:04:07.659Z,21.00
2023-03-06T18:06:34.534Z,25.77
2023-03-06T18:09:01.249Z,22.45
2023-03-06T18:11:28.248Z,21.05
2023-03-06T18:13:54.791Z,23.52
2023-03-06T18:16:23.677Z,25.60
2023-03-06T18:18:55.064Z,24.35
2023-03-06T18:21:22.829Z,23.70
2023-03-06T18:23:49.726Z,23.75
2023-03-06T18:26:22.766Z,25.20
2023-03-06T18:28:53.236Z,20.70
2023-03-06T18:31:25.495Z,24.25
2023-03-06T18:33:53.446Z,29.13
2023-03-06T18:36:21.453Z,25.42
2023-03-06T18:38:48.040Z,28.05
2023-03-06T18:41:14.438Z,25.50
2023-03-06T18:43:40.852Z,25.85
2023-03-06T18:46:07.896Z,23.73
2023-03-06T18:48:34.539Z,24.55
2023-03-06T18:51:09.285Z,24.65
2023-03-06T18:53:36.393Z,22.65
2023-03-06T18:56:03.437Z,28.45
2023-03-06T18:58:29.989Z,23.17
2023-03-06T19:00:59.214Z,23.23
2023-03-06T19:03:25.696Z,23.85
2023-03-06T19:05:52.192Z,23.60
2023-03-06T19:08:18.796Z,20.67
2023-03-06T19:10:46.288Z,29.52
2023-03-06T19:13:13.513Z,23.88
2023-03-06T19:15:48.575Z,28.05
2023-03-06T19:18:17.973Z,23.90
2023-03-06T19:20:44.831Z,23.20
2023-03-06T19:23:11.412Z,23.23
2023-03-06T19:25:37.821Z,25.33
2023-03-06T19:28:04.617Z,26.38
2023-03-06T19:30:31.149Z,24.52
2023-03-06T19:32:57.690Z,24.42
2023-03-06T19:35:26.003Z,26.70
2023-03-06T19:37:53.270Z,27.17
2023-03-06T19:40:20.138Z,29.92
2023-03-06T19:42:46.722Z,23.92
2023-03-06T19:45:13.116Z,23.40
2023-03-06T19:47:39.475Z,27.60
2023-03-06T19:50:06.415Z,24.83
2023-03-06T19:52:36.361Z,20.45
2023-03-06T19:55:02.774Z,24.20
2023-03-06T19:57:29.148Z,23.10
2023-03-06T19:59:57.553Z,20.13
2023-03-06T20:02:27.078Z,23.55
2023-03-06T20:04:54.398Z,19.45
2023-03-06T20:07:21.380Z,22.15
2023-03-06T20:09:48.145Z,18.63
2023-03-06T20:12:15.036Z,25.20
2023-03-06T20:14:42.396Z,18.63
2023-03-06T20:17:08.793Z,22.27
2023-03-06T20:19:35.287Z,23.25
2023-03-06T20:22:01.784Z,23.83
2023-03-06T20:24:28.188Z,25.05
2023-03-06T20:26:57.411Z,22.40
2023-03-06T20:29:28.226Z,24.75
2023-03-06T20:31:56.414Z,22.92
2023-03-06T20:34:23.504Z,25.17
2023-03-06T20:36:50.319Z,24.58
2023-03-06T20:39:18.802Z,22.13
2023-03-06T20:41:46.703Z,24.08
2023-03-06T20:44:15.803Z,26.70
2023-03-06T20:46:42.528Z,25.80
2023-03-06T20:49:10.429Z,29.10
2023-03-06T20:51:39.082Z,29.30
2023-03-06T20:54:07.503Z,27.27
2023-03-06T20:56:35.424Z,26.08
2023-03-06T20:59:02.295Z,28.33
2023-03-06T21:01:40.998Z,24.77
2023-03-06T21:04:10.056Z,24.50
2023-03-06T21:06:37.549Z,24.45
2023-03-06T21:09:06.036Z,24.55
2023-03-06T21:11:34.531Z,27.27
2023-03-06T21:14:01.038Z,25.92
2023-03-06T21:16:28.993Z,27.40
2023-03-06T21:18:56.336Z,28.00
2023-03-06T21:21:26.009Z,25.85
2023-03-06T21:23:52.444Z,29.08
2023-03-06T21:26:21.364Z,28.48
2023-03-06T21:28:48.347Z,28.90
2023-03-06T21:31:17.084Z,26.63
2023-03-06T21:33:44.265Z,31.73
2023-03-06T21:36:11.159Z,31.10
2023-03-06T21:38:37.559Z,31.67
2023-03-06T21:41:18.446Z,27.30
2023-03-06T21:43:44.872Z,33.60
2023-03-06T21:46:11.767Z,30.92
2023-03-06T21:48:38.319Z,34.67
2023-03-06T21:51:07.175Z,30.67
2023-03-06T21:53:33.799Z,33.60
2023-03-06T21:56:03.814Z,31.88
2023-03-06T21:58:30.679Z,38.33
2023-03-06T22:00:57.174Z,33.60
2023-03-06T22:03:23.893Z,33.95
2023-03-06T22:05:51.898Z,32.35
2023-03-06T22:08:21.314Z,31.13
2023-03-06T22:10:48.929Z,35.40
2023-03-06T22:13:15.991Z,33.85
2023-03-06T22:15:53.006Z,33.70
2023-03-06T22:18:19.421Z,32.40
2023-03-06T22:20:45.833Z,31.73
2023-03-06T22:23:12.268Z,30.23
2023-03-06T22:25:38.770Z,32.70
2023-03-06T22:28:05.162Z,34.67
2023-03-06T22:30:31.598Z,30.60
2023-03-06T22:32:58.378Z,34.65
2023-03-06T22:35:24.889Z,32.58
2023-03-06T22:37:51.259Z,32.03
2023-03-06T22:40:17.752Z,36.15
2023-03-06T22:42:44.134Z,28.75
2023-03-06T22:45:11.055Z,29.90
2023-03-06T22:47:37.985Z,36.00
2023-03-06T22:50:06.130Z,30.40
2023-03-06T22:52:33.421Z,30.63
2023-03-06T22:54:59.799Z,28.27
2023-03-06T22:57:26.276Z,29.55
2023-03-06T22:59:52.705Z,29.80
2023-03-06T23:02:19.117Z,29.20
2023-03-06T23:04:52.244Z,31.67
2023-03-06T23:07:20.445Z,30.42
2023-03-06T23:09:47.055Z,26.35
2023-03-06T23:12:13.507Z,25.08
2023-03-06T23:14:39.903Z,26.60
2023-03-06T23:17:06.344Z,24.30
2023-03-06T23:19:32.783Z,22.80
2023-03-06T23:21:59.225Z,22.65
2023-03-06T23:24:25.659Z,23.67
2023-03-06T23:26:52.023Z,22.23
2023-03-06T23:29:18.422Z,21.83
2023-03-06T23:31:44.886Z,22.38
2023-03-06T23:34:11.567Z,22.77
2023-03-06T23:36:37.923Z,20.27
2023-03-06T23:39:04.398Z,21.00
2023-03-06T23:41:30.792Z,22.23
2023-03-06T23:43:58.326Z,20.92
2023-03-06T23:46:24.817Z,21.42
2023-03-06T23:48:52.176Z,22.73
2023-03-06T23:51:21.172Z,18.67
2023-03-06T23:53:52.771Z,21.73
2023-03-06T23:56:19.144Z,19.10
2023-03-06T23:58:45.661Z,18.08
